KCBK/CBK METAR and TAF weather

Enter ICAO airport designator
Station Type Date Time Source
KCBK METAR 2020/04/05 15:35 UTC NOAA

KCBK 051535Z AUTO 17012G15KT 10SM OVC008 04/01 A2995 RMK AO2 PWINO


Station Type Date Time Source
KCBK Decoded METAR 2020/04/05 15:35 UTC NOAA

Station name not available
Apr 05, 2020 - 11:35 AM EDT / 2020.04.05 1535 UTC
Wind: from the S (170 degrees) at 14 MPH (12 KT) gusting to 17 MPH (15 KT):0
Visibility: 10 mile(s):0
Sky conditions: overcast
Temperature: 39 F (4 C)
Dew Point: 33 F (1 C)
Relative Humidity: 80%
Pressure (altimeter): 29.95 in. Hg (1014 hPa)
ob: KCBK 051535Z AUTO 17012G15KT 10SM OVC008 04/01 A2995 RMK AO2 PWINO
cycle: 15

Station Type Date Time Source
KCBK TAF UTC NOAA

Error!

Example: see airport list